createdAt,value
2017-07-28T00:00:11.352Z,15.44
2017-07-28T00:01:21.627Z,15.35
2017-07-28T00:02:31.583Z,15.44
2017-07-28T00:03:41.854Z,15.44
2017-07-28T00:04:52.126Z,15.39
2017-07-28T00:06:01.791Z,15.43
2017-07-28T00:07:12.063Z,15.39
2017-07-28T00:08:22.333Z,15.43
2017-07-28T00:09:32.290Z,15.37
2017-07-28T00:10:41.930Z,15.36
2017-07-28T00:11:52.199Z,15.5
2017-07-28T00:13:02.473Z,15.44
2017-07-28T00:14:12.115Z,15.44
2017-07-28T00:15:22.391Z,15.43
2017-07-28T00:16:32.666Z,15.37
2017-07-28T00:17:42.940Z,15.36
2017-07-28T00:18:53.211Z,15.36
2017-07-28T00:20:03.486Z,15.37
2017-07-28T00:21:13.129Z,15.44
2017-07-28T00:22:23.393Z,15.39
2017-07-28T00:23:33.358Z,15.43
2017-07-28T00:24:43.633Z,15.41
2017-07-28T00:25:53.903Z,15.32
2017-07-28T00:27:03.859Z,15.33
2017-07-28T00:28:14.139Z,15.26
2017-07-28T00:29:24.412Z,15.27
2017-07-28T00:30:33.737Z,15.39
2017-07-28T00:31:44.010Z,15.29
2017-07-28T00:32:53.963Z,15.32
2017-07-28T00:34:04.233Z,15.37
2017-07-28T00:35:14.191Z,15.32
2017-07-28T00:36:24.461Z,15.18
2017-07-28T00:37:34.421Z,15.27
2017-07-28T00:38:44.375Z,15.25
2017-07-28T00:39:54.649Z,15.25
2017-07-28T00:41:04.926Z,15.22
2017-07-28T00:42:14.883Z,15.19
2017-07-28T00:43:24.878Z,15.25
2017-07-28T00:44:35.160Z,15.17
2017-07-28T00:45:45.435Z,15.19
2017-07-28T00:46:55.388Z,15.22
2017-07-28T00:48:05.662Z,15.23
2017-07-28T00:49:15.930Z,15.15
2017-07-28T00:50:25.886Z,15.19
2017-07-28T00:51:36.156Z,15.22
2017-07-28T00:52:46.118Z,15.22
2017-07-28T00:53:56.406Z,15.15
2017-07-28T00:55:06.360Z,15.23
2017-07-28T00:56:16.633Z,15.22
2017-07-28T00:57:26.910Z,15.19
2017-07-28T00:58:36.869Z,15.19
2017-07-28T00:59:47.139Z,15.11
2017-07-28T01:00:57.412Z,15.17
2017-07-28T01:02:07.687Z,15.15
2017-07-28T01:03:17.957Z,15.19
2017-07-28T01:04:27.909Z,15.17
2017-07-28T01:05:37.865Z,15.17
2017-07-28T01:06:48.138Z,15.11
2017-07-28T01:07:58.412Z,15.08
2017-07-28T01:09:08.682Z,15.15
2017-07-28T01:10:18.950Z,15.05
2017-07-28T01:11:29.220Z,15.1
2017-07-28T01:12:39.502Z,15.05
2017-07-28T01:13:49.457Z,15.08
2017-07-28T01:14:59.743Z,15.07
2017-07-28T01:16:09.726Z,15.14
2017-07-28T01:17:19.998Z,15.1
2017-07-28T01:18:29.957Z,15.04
2017-07-28T01:19:40.235Z,15
2017-07-28T01:20:50.504Z,15.04
2017-07-28T01:22:00.457Z,15.08
2017-07-28T01:23:10.416Z,15.08
2017-07-28T01:24:20.688Z,15.05
2017-07-28T01:25:30.958Z,14.94
2017-07-28T01:26:41.237Z,14.94
2017-07-28T01:27:51.500Z,15
2017-07-28T01:29:01.453Z,15.04
2017-07-28T01:30:11.408Z,14.93
2017-07-28T01:31:21.362Z,14.97
2017-07-28T01:32:31.631Z,14.99
2017-07-28T01:33:41.903Z,15.02
2017-07-28T01:34:52.171Z,15.11
2017-07-28T01:36:02.125Z,15.07
2017-07-28T01:37:12.084Z,15.05
2017-07-28T01:38:22.047Z,15.05
2017-07-28T01:39:32.004Z,14.99
2017-07-28T01:40:42.271Z,15.02
2017-07-28T01:41:52.549Z,14.97
2017-07-28T01:43:02.507Z,14.97
2017-07-28T01:44:12.779Z,15.08
2017-07-28T01:45:23.049Z,14.99
2017-07-28T01:46:33.320Z,15
2017-07-28T01:47:43.590Z,14.99
2017-07-28T01:48:53.546Z,14.99
2017-07-28T01:50:03.822Z,14.96
2017-07-28T01:51:13.783Z,14.96
2017-07-28T01:52:24.055Z,14.96
2017-07-28T01:53:34.330Z,14.9
2017-07-28T01:54:44.596Z,14.87
2017-07-28T01:55:54.867Z,14.92
2017-07-28T01:57:05.141Z,14.89
2017-07-28T01:58:15.414Z,14.81
2017-07-28T01:59:25.058Z,14.74
2017-07-28T02:00:35.321Z,14.67
2017-07-28T02:01:45.275Z,14.52
2017-07-28T02:02:55.548Z,14.52
2017-07-28T02:04:05.811Z,14.53
2017-07-28T02:05:15.457Z,14.37
2017-07-28T02:06:25.727Z,14.4
2017-07-28T02:07:35.688Z,14.36
2017-07-28T02:08:45.965Z,14.37
2017-07-28T02:09:56.231Z,14.28
2017-07-28T02:11:06.500Z,14.26
2017-07-28T02:12:16.764Z,14.25
2017-07-28T02:13:26.715Z,14.18
2017-07-28T02:14:36.354Z,14.15
2017-07-28T02:15:46.306Z,14.08
2017-07-28T02:16:56.258Z,14.13
2017-07-28T02:18:06.531Z,14.05
2017-07-28T02:19:16.801Z,14.12
2017-07-28T02:20:26.442Z,14
2017-07-28T02:21:36.397Z,13.98
2017-07-28T02:22:46.682Z,13.86
2017-07-28T02:23:56.954Z,13.98
2017-07-28T02:25:06.908Z,13.94
2017-07-28T02:26:17.182Z,13.82
2017-07-28T02:27:27.449Z,13.82
2017-07-28T02:28:37.129Z,13.82
2017-07-28T02:29:47.093Z,13.8
2017-07-28T02:30:57.360Z,13.78
2017-07-28T02:32:07.635Z,13.75
2017-07-28T02:33:17.624Z,13.67
2017-07-28T02:34:27.272Z,13.64
2017-07-28T02:35:37.230Z,13.61
2017-07-28T02:36:47.186Z,13.68
2017-07-28T02:37:57.470Z,13.67
2017-07-28T02:39:07.758Z,13.7
2017-07-28T02:40:18.026Z,13.64
2017-07-28T02:41:27.991Z,13.6
2017-07-28T02:42:38.259Z,13.64
2017-07-28T02:43:48.527Z,13.62
2017-07-28T02:44:58.812Z,13.65
2017-07-28T02:46:08.772Z,13.6
2017-07-28T02:47:18.729Z,13.64
2017-07-28T02:48:28.994Z,13.6
2017-07-28T02:49:39.262Z,13.64
2017-07-28T02:50:48.902Z,13.67
2017-07-28T02:51:58.855Z,13.62
2017-07-28T02:53:09.122Z,13.64
2017-07-28T02:54:19.074Z,13.65
2017-07-28T02:55:29.025Z,13.52
2017-07-28T02:56:39.291Z,13.65
2017-07-28T02:57:49.569Z,13.6
2017-07-28T02:58:59.855Z,13.6
2017-07-28T03:00:10.127Z,13.5
2017-07-28T03:01:20.394Z,13.67
2017-07-28T03:02:30.672Z,13.55
2017-07-28T03:03:40.938Z,13.58
2017-07-28T03:04:51.209Z,13.47
2017-07-28T03:06:01.477Z,13.49
2017-07-28T03:07:11.432Z,13.57
2017-07-28T03:08:21.388Z,13.52
2017-07-28T03:09:31.663Z,13.52
2017-07-28T03:10:41.939Z,13.52
2017-07-28T03:11:51.267Z,13.62
2017-07-28T03:13:01.544Z,13.62
2017-07-28T03:14:11.814Z,13.58
2017-07-28T03:15:22.096Z,13.64
2017-07-28T03:16:32.409Z,13.61
2017-07-28T03:17:42.679Z,13.57
2017-07-28T03:18:52.952Z,13.57
2017-07-28T03:20:03.223Z,13.64
2017-07-28T03:21:13.185Z,13.61
2017-07-28T03:22:23.454Z,13.62
2017-07-28T03:23:33.097Z,13.61
2017-07-28T03:24:43.372Z,13.65
2017-07-28T03:25:53.639Z,13.68
2017-07-28T03:27:03.909Z,13.62
2017-07-28T03:28:13.865Z,13.65
2017-07-28T03:29:23.821Z,13.64
2017-07-28T03:30:34.108Z,13.65
2017-07-28T03:31:44.066Z,13.62
2017-07-28T03:32:54.023Z,13.68
2017-07-28T03:34:04.293Z,13.58
2017-07-28T03:35:13.620Z,13.78
2017-07-28T03:36:23.577Z,13.75
2017-07-28T03:37:33.534Z,13.68
2017-07-28T03:38:43.814Z,13.75
2017-07-28T03:39:54.081Z,13.79
2017-07-28T03:41:04.350Z,13.79
2017-07-28T03:42:14.622Z,13.85
2017-07-28T03:43:24.888Z,13.89
2017-07-28T03:44:34.530Z,13.89
2017-07-28T03:45:44.489Z,13.79
2017-07-28T03:46:54.761Z,13.86
2017-07-28T03:48:04.716Z,13.8
2017-07-28T03:49:14.357Z,13.82
2017-07-28T03:50:24.637Z,13.83
2017-07-28T03:51:34.589Z,13.87
2017-07-28T03:52:44.865Z,13.93
2017-07-28T03:53:54.821Z,13.86
2017-07-28T03:55:04.776Z,13.86
2017-07-28T03:56:14.098Z,13.89
2017-07-28T03:57:24.363Z,13.86
2017-07-28T03:58:34.326Z,13.8
2017-07-28T03:59:44.598Z,13.76
2017-07-28T04:00:54.874Z,13.76
2017-07-28T04:02:05.144Z,13.86
2017-07-28T04:03:15.416Z,13.83
2017-07-28T04:04:25.373Z,13.85
2017-07-28T04:05:35.335Z,13.89
2017-07-28T04:06:45.602Z,13.89
2017-07-28T04:07:55.872Z,13.85
2017-07-28T04:09:06.148Z,13.93
2017-07-28T04:10:16.418Z,13.95
2017-07-28T04:11:26.698Z,13.95
2017-07-28T04:12:36.963Z,13.93
2017-07-28T04:13:47.248Z,13.95
2017-07-28T04:14:57.522Z,14.01
2017-07-28T04:16:07.166Z,13.98
2017-07-28T04:17:17.454Z,13.98
2017-07-28T04:18:27.726Z,14.01
2017-07-28T04:19:37.997Z,13.97
2017-07-28T04:20:48.270Z,13.97
2017-07-28T04:21:58.541Z,13.93
2017-07-28T04:23:08.821Z,13.95
2017-07-28T04:24:18.782Z,14
2017-07-28T04:25:29.090Z,14.08
2017-07-28T04:26:39.358Z,14.05
2017-07-28T04:27:49.631Z,14.08
2017-07-28T04:28:59.589Z,14.04
2017-07-28T04:30:09.541Z,14.05
2017-07-28T04:31:19.504Z,14.13
2017-07-28T04:32:29.781Z,14.13
2017-07-28T04:33:39.738Z,14.13
2017-07-28T04:34:50.005Z,14.05
2017-07-28T04:36:00.275Z,14.04
2017-07-28T04:37:10.231Z,14.08
2017-07-28T04:38:20.495Z,14.05
2017-07-28T04:39:30.144Z,14.05
2017-07-28T04:40:40.416Z,14.07
2017-07-28T04:41:50.691Z,14.13
2017-07-28T04:43:00.652Z,14.16
2017-07-28T04:44:10.923Z,14.19
2017-07-28T04:45:20.877Z,14.11
2017-07-28T04:46:31.145Z,14.28
2017-07-28T04:47:41.416Z,14.23
2017-07-28T04:48:51.382Z,14.3
2017-07-28T04:50:01.648Z,14.31
2017-07-28T04:51:11.605Z,14.26
2017-07-28T04:52:21.871Z,14.41
2017-07-28T04:53:31.827Z,14.38
2017-07-28T04:54:41.788Z,14.37
2017-07-28T04:55:51.741Z,14.37
2017-07-28T04:57:02.009Z,14.34
2017-07-28T04:58:12.286Z,14.37
2017-07-28T04:59:22.553Z,14.37
2017-07-28T05:00:32.509Z,14.44
2017-07-28T05:01:42.775Z,14.4
2017-07-28T05:02:53.045Z,14.38
2017-07-28T05:04:03.316Z,14.41
2017-07-28T05:05:13.590Z,14.44
2017-07-28T05:06:23.856Z,14.52
2017-07-28T05:07:33.811Z,14.51
2017-07-28T05:08:44.078Z,14.51
2017-07-28T05:09:54.035Z,14.56
2017-07-28T05:11:04.312Z,14.51
2017-07-28T05:12:14.582Z,14.58
2017-07-28T05:13:24.864Z,14.55
2017-07-28T05:14:34.847Z,14.68
2017-07-28T05:15:45.125Z,14.71
2017-07-28T05:16:55.396Z,14.55
2017-07-28T05:18:05.667Z,14.53
2017-07-28T05:19:15.935Z,14.68
2017-07-28T05:20:26.215Z,14.66
2017-07-28T05:21:35.861Z,14.61
2017-07-28T05:22:46.130Z,14.62
2017-07-28T05:23:56.083Z,14.68
2017-07-28T05:25:06.357Z,14.59
2017-07-28T05:26:16.632Z,14.63
2017-07-28T05:27:26.905Z,14.81
2017-07-28T05:28:37.177Z,14.73
2017-07-28T05:29:47.131Z,14.78
2017-07-28T05:30:57.083Z,14.85
2017-07-28T05:32:07.359Z,14.9
2017-07-28T05:33:17.315Z,14.93
2017-07-28T05:34:27.579Z,14.94
2017-07-28T05:35:37.533Z,14.94
2017-07-28T05:36:47.803Z,14.93
2017-07-28T05:37:58.077Z,14.92
2017-07-28T05:39:08.057Z,15.04
2017-07-28T05:40:18.329Z,15.02
2017-07-28T05:41:28.602Z,14.97
2017-07-28T05:42:38.882Z,15.07
2017-07-28T05:43:49.165Z,15.1
2017-07-28T05:44:59.134Z,15.17
2017-07-28T05:46:09.102Z,15.15
2017-07-28T05:47:19.064Z,15.19
2017-07-28T05:48:29.335Z,15.22
2017-07-28T05:49:39.611Z,15.26
2017-07-28T05:50:49.570Z,15.23
2017-07-28T05:51:59.841Z,15.27
2017-07-28T05:53:09.486Z,15.25
2017-07-28T05:54:19.465Z,15.29
2017-07-28T05:55:29.733Z,15.3
2017-07-28T05:56:39.690Z,15.33
2017-07-28T05:57:49.964Z,15.41
2017-07-28T05:59:00.237Z,15.39
2017-07-28T06:00:10.516Z,15.44
2017-07-28T06:01:20.479Z,15.33
2017-07-28T06:02:30.750Z,15.45
2017-07-28T06:03:40.710Z,15.47
2017-07-28T06:04:50.662Z,15.54
2017-07-28T06:06:00.942Z,15.44
2017-07-28T06:07:11.246Z,15.52
2017-07-28T06:08:21.517Z,15.51
2017-07-28T06:09:31.842Z,15.62
2017-07-28T06:10:42.111Z,15.65
2017-07-28T06:11:52.380Z,15.67
2017-07-28T06:13:02.653Z,15.7
2017-07-28T06:14:12.611Z,15.66
2017-07-28T06:15:22.880Z,15.84
2017-07-28T06:16:32.845Z,15.78
2017-07-28T06:17:43.134Z,15.85
2017-07-28T06:18:53.405Z,15.92
2017-07-28T06:20:03.372Z,15.98
2017-07-28T06:21:13.332Z,15.99
2017-07-28T06:22:23.602Z,16.06
2017-07-28T06:23:33.562Z,16.09
2017-07-28T06:24:43.543Z,16.05
2017-07-28T06:25:53.814Z,16.17
2017-07-28T06:27:04.086Z,16.16
2017-07-28T06:28:14.054Z,16.28
2017-07-28T06:29:24.327Z,16.31
2017-07-28T06:30:34.281Z,16.31
2017-07-28T06:31:44.248Z,16.4
2017-07-28T06:32:54.525Z,16.39
2017-07-28T06:34:04.794Z,16.41
2017-07-28T06:35:15.079Z,16.4
2017-07-28T06:36:25.353Z,16.47
2017-07-28T06:37:35.310Z,16.49
2017-07-28T06:38:45.588Z,16.51
2017-07-28T06:39:55.547Z,16.66
2017-07-28T06:41:05.825Z,16.49
2017-07-28T06:42:15.787Z,16.51
2017-07-28T06:43:25.755Z,16.57
2017-07-28T06:44:36.024Z,16.55
2017-07-28T06:45:46.005Z,16.59
2017-07-28T06:46:55.642Z,16.69
2017-07-28T06:48:05.601Z,16.82
2017-07-28T06:49:15.878Z,16.79
2017-07-28T06:50:26.149Z,16.74
2017-07-28T06:51:36.425Z,16.79
2017-07-28T06:52:46.382Z,16.84
2017-07-28T06:53:56.658Z,16.79
2017-07-28T06:55:06.623Z,16.91
2017-07-28T06:56:16.899Z,16.91
2017-07-28T06:57:27.170Z,17.04
2017-07-28T06:58:36.812Z,16.99
2017-07-28T06:59:46.768Z,17.02
2017-07-28T07:00:57.052Z,17.09
2017-07-28T07:02:07.322Z,17.07
2017-07-28T07:03:17.593Z,17.14
2017-07-28T07:04:27.867Z,17.12
2017-07-28T07:05:38.137Z,17.05
2017-07-28T07:06:48.409Z,17.17
2017-07-28T07:07:58.692Z,17.12
2017-07-28T07:09:08.962Z,17.22
2017-07-28T07:10:19.237Z,17.22
2017-07-28T07:11:29.515Z,17.14
2017-07-28T07:12:39.475Z,17.19
2017-07-28T07:13:49.751Z,17.22
2017-07-28T07:14:59.399Z,17.31
2017-07-28T07:16:09.367Z,17.32
2017-07-28T07:17:19.350Z,17.35
2017-07-28T07:18:29.336Z,17.35
2017-07-28T07:19:39.441Z,17.34
2017-07-28T07:20:49.709Z,17.32
2017-07-28T07:21:59.662Z,17.28
2017-07-28T07:23:09.620Z,17.24
2017-07-28T07:24:19.892Z,17.28
2017-07-28T07:25:29.858Z,17.27
2017-07-28T07:26:40.126Z,17.22
2017-07-28T07:27:50.399Z,17.32
2017-07-28T07:29:00.353Z,17.19
2017-07-28T07:30:10.008Z,17.19
2017-07-28T07:31:20.299Z,17.28
2017-07-28T07:32:30.572Z,17.14
2017-07-28T07:33:40.218Z,17.16
2017-07-28T07:34:50.501Z,17.22
2017-07-28T07:36:00.784Z,17.27
2017-07-28T07:37:11.080Z,17.31
2017-07-28T07:38:21.043Z,17.34
2017-07-28T07:39:31.321Z,17.32
2017-07-28T07:40:40.965Z,17.23
2017-07-28T07:41:51.247Z,17.22
2017-07-28T07:43:01.523Z,17.27
2017-07-28T07:44:11.796Z,17.23
2017-07-28T07:45:21.755Z,17.23
2017-07-28T07:46:32.033Z,17.23
2017-07-28T07:47:42.317Z,17.34
2017-07-28T07:48:52.275Z,17.05
2017-07-28T07:50:02.560Z,17.04
2017-07-28T07:51:12.842Z,17.1
2017-07-28T07:52:22.805Z,17.07
2017-07-28T07:53:32.759Z,17.22
2017-07-28T07:54:43.036Z,17.16
2017-07-28T07:55:52.678Z,17.24
2017-07-28T07:57:02.952Z,17.2
2017-07-28T07:58:12.917Z,17.23
2017-07-28T07:59:22.874Z,17.32
2017-07-28T08:00:32.529Z,17.42
2017-07-28T08:01:42.490Z,17.49
2017-07-28T08:02:52.448Z,17.5
2017-07-28T08:04:02.723Z,17.63
2017-07-28T08:05:12.372Z,17.75
2017-07-28T08:06:22.332Z,17.76
2017-07-28T08:07:31.972Z,17.87
2017-07-28T08:08:41.933Z,17.9
2017-07-28T08:09:51.576Z,18.06
2017-07-28T08:11:01.846Z,18.06
2017-07-28T08:12:11.871Z,18.21
2017-07-28T08:13:21.837Z,18.3
2017-07-28T08:14:31.797Z,18.23
2017-07-28T08:15:41.755Z,18.53
2017-07-28T08:16:51.725Z,18.48
2017-07-28T08:18:02.002Z,18.51
2017-07-28T08:19:11.980Z,18.58
2017-07-28T08:20:22.254Z,18.71
2017-07-28T08:21:32.538Z,18.68
2017-07-28T08:22:42.499Z,18.78
2017-07-28T08:23:52.463Z,18.82
2017-07-28T08:25:02.110Z,18.79
2017-07-28T08:26:12.387Z,18.88
2017-07-28T08:27:22.672Z,19
2017-07-28T08:28:32.632Z,19.01
2017-07-28T08:29:42.900Z,19.12
2017-07-28T08:30:53.171Z,19.17
2017-07-28T08:32:03.456Z,19.16
2017-07-28T08:33:13.733Z,19.23
2017-07-28T08:34:24.010Z,19.35
2017-07-28T08:35:34.281Z,19.34
2017-07-28T08:36:44.555Z,19.45
2017-07-28T08:37:54.834Z,19.52
2017-07-28T08:39:04.806Z,19.59
2017-07-28T08:40:15.086Z,19.67
2017-07-28T08:41:25.362Z,19.63
2017-07-28T08:42:34.691Z,19.72
2017-07-28T08:43:44.662Z,19.74
2017-07-28T08:44:54.631Z,19.79
2017-07-28T08:46:04.916Z,19.78
2017-07-28T08:47:14.880Z,19.79
2017-07-28T08:48:25.145Z,19.82
2017-07-28T08:49:35.429Z,19.78
2017-07-28T08:50:45.386Z,19.74
2017-07-28T08:51:55.348Z,19.9
2017-07-28T08:53:07.621Z,20
2017-07-28T08:54:17.584Z,19.93
2017-07-28T08:55:27.856Z,20.07
2017-07-28T08:56:37.819Z,20.03
2017-07-28T08:57:47.779Z,19.99
2017-07-28T08:58:57.739Z,20.04
2017-07-28T09:00:07.706Z,20.07
2017-07-28T09:01:17.362Z,20.08
2017-07-28T09:02:27.646Z,20.02
2017-07-28T09:03:37.921Z,20.07
2017-07-28T09:04:48.197Z,19.97
2017-07-28T09:05:57.846Z,19.94
2017-07-28T09:07:08.131Z,19.99
2017-07-28T09:08:18.414Z,20.18
2017-07-28T09:09:28.373Z,20.29
2017-07-28T09:10:38.343Z,20.39
2017-07-28T09:11:48.632Z,20.46
2017-07-28T09:12:58.913Z,20.64
2017-07-28T09:14:08.876Z,20.66
2017-07-28T09:15:18.842Z,20.7
2017-07-28T09:16:28.497Z,20.74
2017-07-28T09:17:38.149Z,20.8
2017-07-28T09:18:48.110Z,20.85
2017-07-28T09:19:58.389Z,20.92
2017-07-28T09:21:08.663Z,20.93
2017-07-28T09:22:18.626Z,21.1
2017-07-28T09:23:28.592Z,21.04
2017-07-28T09:24:38.869Z,21.08
2017-07-28T09:25:48.834Z,21.05
2017-07-28T09:26:58.794Z,21.05
2017-07-28T09:28:08.453Z,21.15
2017-07-28T09:29:18.738Z,21.22
2017-07-28T09:30:28.702Z,21.25
2017-07-28T09:31:38.665Z,21.28
2017-07-28T09:32:48.946Z,21.35
2017-07-28T09:33:58.912Z,21.14
2017-07-28T09:35:09.189Z,21.2
2017-07-28T09:36:19.467Z,21.22
2017-07-28T09:37:29.752Z,21.22
2017-07-28T09:38:39.714Z,21.05
2017-07-28T09:39:49.994Z,21.03
2017-07-28T09:40:59.657Z,21.03
2017-07-28T09:42:09.937Z,20.96
2017-07-28T09:43:20.224Z,21
2017-07-28T09:44:30.501Z,20.98
2017-07-28T09:45:40.458Z,21.05
2017-07-28T09:46:50.117Z,20.88
2017-07-28T09:47:59.767Z,20.89
2017-07-28T09:49:10.046Z,20.88
2017-07-28T09:50:20.011Z,20.95
2017-07-28T09:51:29.973Z,20.77
2017-07-28T09:52:40.250Z,20.78
2017-07-28T09:53:50.223Z,20.83
2017-07-28T09:55:00.494Z,20.82
2017-07-28T09:56:10.457Z,20.77
2017-07-28T09:57:20.753Z,20.74
2017-07-28T09:58:30.723Z,20.83
2017-07-28T09:59:40.998Z,20.73
2017-07-28T10:00:50.960Z,20.63
2017-07-28T10:02:01.237Z,20.63
2017-07-28T10:03:11.512Z,20.52
2017-07-28T10:04:21.792Z,20.44
2017-07-28T10:05:32.064Z,20.48
2017-07-28T10:06:42.049Z,20.44
2017-07-28T10:07:52.325Z,20.52
2017-07-28T10:09:01.974Z,20.39
2017-07-28T10:10:11.935Z,20.48
2017-07-28T10:11:22.211Z,20.39
2017-07-28T10:12:32.496Z,20.46
2017-07-28T10:13:42.142Z,20.53
2017-07-28T10:14:52.415Z,20.64
2017-07-28T10:16:02.064Z,20.6
2017-07-28T10:17:12.028Z,20.66
2017-07-28T10:18:22.311Z,20.7
2017-07-28T10:19:32.273Z,20.77
2017-07-28T10:20:42.561Z,20.78
2017-07-28T10:21:52.240Z,20.8
2017-07-28T10:23:02.526Z,20.77
2017-07-28T10:24:12.489Z,20.78
2017-07-28T10:25:22.455Z,20.83
2017-07-28T10:26:32.730Z,20.8
2017-07-28T10:27:43.038Z,20.82
2017-07-28T10:28:53.004Z,20.86
2017-07-28T10:30:03.278Z,20.95
2017-07-28T10:31:13.243Z,21.01
2017-07-28T10:32:23.202Z,21.19
2017-07-28T10:33:32.849Z,21.05
2017-07-28T10:34:43.131Z,21.01
2017-07-28T10:35:53.407Z,21.1
2017-07-28T10:37:03.057Z,21.1
2017-07-28T10:38:13.025Z,21.1
2017-07-28T10:39:23.299Z,21.07
2017-07-28T10:40:33.260Z,21.22
2017-07-28T10:41:43.533Z,21.3
2017-07-28T10:42:53.497Z,21.37
2017-07-28T10:44:03.461Z,21.5
2017-07-28T10:45:13.743Z,21.48
2017-07-28T10:46:24.021Z,21.58
2017-07-28T10:47:33.988Z,21.41
2017-07-28T10:48:44.275Z,21.43
2017-07-28T10:49:54.556Z,21.45
2017-07-28T10:51:04.516Z,21.32
2017-07-28T10:52:14.506Z,21.38
2017-07-28T10:53:24.789Z,21.28
2017-07-28T10:54:35.064Z,21.29
2017-07-28T10:55:45.335Z,21.4
2017-07-28T10:56:55.301Z,21.45
2017-07-28T10:58:05.269Z,21.53
2017-07-28T10:59:15.554Z,21.62
2017-07-28T11:00:25.834Z,21.66
2017-07-28T11:01:35.801Z,21.83
2017-07-28T11:02:45.135Z,21.8
2017-07-28T11:03:55.415Z,21.91
2017-07-28T11:05:05.720Z,21.88
2017-07-28T11:06:15.050Z,22.07
2017-07-28T11:07:25.329Z,22.08
2017-07-28T11:08:35.298Z,22.12
2017-07-28T11:09:45.258Z,22.16
2017-07-28T11:10:55.536Z,22.18
2017-07-28T11:12:05.495Z,22.19
2017-07-28T11:13:15.180Z,22.18
2017-07-28T11:14:25.457Z,22.14
2017-07-28T11:15:35.419Z,22.25
2017-07-28T11:16:45.704Z,22.28
2017-07-28T11:17:55.984Z,22.26
2017-07-28T11:19:05.952Z,22.3
2017-07-28T11:20:15.915Z,22.15
2017-07-28T11:21:25.882Z,22.07
2017-07-28T11:22:35.843Z,22.04
2017-07-28T11:23:46.123Z,21.94
2017-07-28T11:24:56.401Z,21.8
2017-07-28T11:26:06.693Z,21.84
2017-07-28T11:27:16.972Z,21.85
2017-07-28T11:28:27.244Z,21.75
2017-07-28T11:29:37.529Z,21.88
2017-07-28T11:30:47.807Z,21.75
2017-07-28T11:31:58.076Z,21.91
2017-07-28T11:33:07.726Z,21.78
2017-07-28T11:34:18.006Z,21.78
2017-07-28T11:35:28.280Z,21.85
2017-07-28T11:36:38.561Z,22.19
2017-07-28T11:37:48.871Z,22.58
2017-07-28T11:38:59.154Z,23.14
2017-07-28T11:40:09.117Z,23.58
2017-07-28T11:41:19.397Z,23.88
2017-07-28T11:42:29.678Z,23.69
2017-07-28T11:43:39.645Z,23.44
2017-07-28T11:44:49.926Z,23.23
2017-07-28T11:45:59.908Z,23.01
2017-07-28T11:47:10.190Z,22.95
2017-07-28T11:48:20.467Z,22.95
2017-07-28T11:49:30.431Z,22.86
2017-07-28T11:50:40.710Z,23.34
2017-07-28T11:51:50.670Z,23.88
2017-07-28T11:53:00.954Z,24.61
2017-07-28T11:54:11.229Z,25.19
2017-07-28T11:55:21.505Z,25.74
2017-07-28T11:56:31.471Z,26.3
2017-07-28T11:57:41.506Z,26.76
2017-07-28T11:58:51.791Z,27.08
2017-07-28T12:00:01.450Z,27.53
2017-07-28T12:01:11.420Z,27.73
2017-07-28T12:02:21.387Z,27.67
2017-07-28T12:03:31.675Z,27.33
2017-07-28T12:04:41.974Z,27.16
2017-07-28T12:05:52.256Z,27.41
2017-07-28T12:07:01.590Z,27.48
2017-07-28T12:08:11.877Z,27.22
2017-07-28T12:09:22.168Z,27.29
2017-07-28T12:10:32.133Z,27.15
2017-07-28T12:11:42.421Z,26.89
2017-07-28T12:12:52.717Z,26.67
2017-07-28T12:14:02.680Z,26.73
2017-07-28T12:15:12.981Z,27.11
2017-07-28T12:16:23.298Z,27.67
2017-07-28T12:17:37.253Z,28.25
2017-07-28T12:18:47.222Z,28.4
2017-07-28T12:19:57.191Z,28.06
2017-07-28T12:21:07.162Z,28.59
2017-07-28T12:22:17.446Z,28.65
2017-07-28T12:23:27.729Z,28.13
2017-07-28T12:24:38.014Z,27.53
2017-07-28T12:25:47.981Z,27.11
2017-07-28T12:26:57.951Z,26.56
2017-07-28T12:28:07.605Z,26.06
2017-07-28T12:29:17.889Z,25.76
2017-07-28T12:30:28.167Z,25.81
2017-07-28T12:31:38.452Z,25.7
2017-07-28T12:32:48.736Z,25.91
2017-07-28T12:33:58.697Z,26.23
2017-07-28T12:35:08.985Z,26.01
2017-07-28T12:36:19.270Z,25.91
2017-07-28T12:37:29.548Z,25.99
2017-07-28T12:38:39.830Z,25.78
2017-07-28T12:39:50.114Z,25.85
2017-07-28T12:41:00.084Z,25.61
2017-07-28T12:42:10.046Z,25.77
2017-07-28T12:43:20.326Z,26.22
2017-07-28T12:44:30.292Z,26.56
2017-07-28T12:45:39.950Z,27.01
2017-07-28T12:46:50.235Z,26.61
2017-07-28T12:48:00.201Z,26.41
2017-07-28T12:49:10.486Z,25.93
2017-07-28T12:50:20.461Z,25.44
2017-07-28T12:51:30.454Z,25.11
2017-07-28T12:52:40.423Z,24.77
2017-07-28T12:53:50.710Z,25.26
2017-07-28T12:55:01.006Z,25.37
2017-07-28T12:56:10.971Z,25.46
2017-07-28T12:57:20.938Z,25.96
2017-07-28T12:58:30.917Z,26.44
2017-07-28T12:59:41.199Z,26.52
2017-07-28T13:00:51.169Z,26.34
2017-07-28T13:02:01.452Z,26.11
2017-07-28T13:03:11.737Z,26.11
2017-07-28T13:04:22.022Z,26.01
2017-07-28T13:05:32.305Z,25.81
2017-07-28T13:06:42.582Z,25.46
2017-07-28T13:07:52.549Z,25.19
2017-07-28T13:09:02.842Z,24.94
2017-07-28T13:10:12.815Z,24.88
2017-07-28T13:11:23.097Z,24.59
2017-07-28T13:12:33.381Z,24.24
2017-07-28T13:13:43.668Z,24.06
2017-07-28T13:14:53.947Z,24
2017-07-28T13:16:04.230Z,24.07
2017-07-28T13:17:14.190Z,24.21
2017-07-28T13:18:24.167Z,24.31
2017-07-28T13:19:34.134Z,24.53
2017-07-28T13:20:44.094Z,24.84
2017-07-28T13:21:54.374Z,24.93
2017-07-28T13:23:04.662Z,25.18
2017-07-28T13:24:14.958Z,25.3
2017-07-28T13:25:24.920Z,25.76
2017-07-28T13:26:35.201Z,26.04
2017-07-28T13:27:45.491Z,26.46
2017-07-28T13:28:55.457Z,26.83
2017-07-28T13:30:05.735Z,27.23
2017-07-28T13:31:15.708Z,27.73
2017-07-28T13:32:25.683Z,28.31
2017-07-28T13:33:35.896Z,28.7
2017-07-28T13:34:46.195Z,29.06
2017-07-28T13:35:56.488Z,29.35
2017-07-28T13:37:06.770Z,29.59
2017-07-28T13:38:16.122Z,29.9
2017-07-28T13:39:26.100Z,30.18
2017-07-28T13:40:36.386Z,30.38
2017-07-28T13:41:46.669Z,30.76
2017-07-28T13:42:56.643Z,30.98
2017-07-28T13:44:06.928Z,31.11
2017-07-28T13:45:16.914Z,30.93
2017-07-28T13:46:27.202Z,30.69
2017-07-28T13:47:37.490Z,30.03
2017-07-28T13:48:47.780Z,29.55
2017-07-28T13:49:58.089Z,29.09
2017-07-28T13:51:08.372Z,28.57
2017-07-28T13:52:18.664Z,28.2
2017-07-28T13:53:28.634Z,27.94
2017-07-28T13:54:38.606Z,27.4
2017-07-28T13:55:48.899Z,26.7
2017-07-28T13:56:59.182Z,26.15
2017-07-28T13:58:09.462Z,25.98
2017-07-28T13:59:19.752Z,26.13
2017-07-28T14:00:30.032Z,26.66
2017-07-28T14:01:40.005Z,27.22
2017-07-28T14:02:49.984Z,27.79
2017-07-28T14:04:00.268Z,27.91
2017-07-28T14:05:10.558Z,27.33
2017-07-28T14:06:20.525Z,27.07
2017-07-28T14:07:30.489Z,26.56
2017-07-28T14:08:40.148Z,25.95
2017-07-28T14:09:50.451Z,25.7
2017-07-28T14:11:00.732Z,26.16
2017-07-28T14:12:10.412Z,26.76
2017-07-28T14:13:20.693Z,27.28
2017-07-28T14:14:30.977Z,27.71
2017-07-28T14:15:41.270Z,28.25
2017-07-28T14:16:51.550Z,28.4
2017-07-28T14:18:01.836Z,28.49
2017-07-28T14:19:12.116Z,28.49
2017-07-28T14:20:22.406Z,28.9
2017-07-28T14:21:32.693Z,29.21
2017-07-28T14:22:42.665Z,29.35
2017-07-28T14:23:52.950Z,29.8
2017-07-28T14:25:02.923Z,30.18
2017-07-28T14:26:13.208Z,30.46
2017-07-28T14:27:23.494Z,30.29
2017-07-28T14:28:33.466Z,30.26
2017-07-28T14:29:43.753Z,29.49
2017-07-28T14:30:54.037Z,29.28
2017-07-28T14:32:04.333Z,29.28
2017-07-28T14:33:13.985Z,29.44
2017-07-28T14:34:24.268Z,29.8
2017-07-28T14:35:34.554Z,30.27
2017-07-28T14:36:44.837Z,30.26
2017-07-28T14:37:54.496Z,30.18
2017-07-28T14:39:04.782Z,30.16
2017-07-28T14:40:15.064Z,29.96
2017-07-28T14:41:25.353Z,29.81
2017-07-28T14:42:35.026Z,29.95
2017-07-28T14:43:45.312Z,29.5
2017-07-28T14:44:55.596Z,29.15
2017-07-28T14:46:05.881Z,28.45
2017-07-28T14:47:15.855Z,28.56
2017-07-28T14:48:26.140Z,28.87
2017-07-28T14:49:36.111Z,29.09
2017-07-28T14:50:46.087Z,29.37
2017-07-28T14:51:56.366Z,29.68
2017-07-28T14:53:06.022Z,29.71
2017-07-28T14:54:16.311Z,29.59
2017-07-28T14:55:26.277Z,29.76
2017-07-28T14:56:36.566Z,29.09
2017-07-28T14:57:46.539Z,28.74
2017-07-28T14:58:56.824Z,28.49
2017-07-28T15:00:07.122Z,27.43
2017-07-28T15:01:17.415Z,26.71
2017-07-28T15:02:27.694Z,26.46
2017-07-28T15:03:37.667Z,26.63
2017-07-28T15:04:47.957Z,26.91
2017-07-28T15:05:58.245Z,27.23